Página principal
METAR-TAF:

METAR-TAF

Aeroportos :

Aeroporto de Madrid-Barajas

Madrid, Espanha

latitude: 40-27N, longitude: 003-33W, altura: 609 m

Observação actual do tempo

O boletim foi feito há 34 minutos, às 10:00 UTC
Vento 3 kt de norte, variando entre noroeste e nor-nordeste
Temperatura 8°C
Humidade 53%
Pressão 1031 hPa
Visibilidade 10 km ou mais
sem nuvens abaixo de 1500 metros e sem cumulonimbus

METAR: LEMD 231000Z 35003KT 310V030 CAVOK 08/M01 Q1031 NOSIG

Hora: 11:34 (10:34 UTC)

Previsão

O boletim foi feito há 5 horas e 34 minutos, às 05:00 UTC
Previsão válida de 23 às 06 UTC a 24 às 12 UTC
Vento 3 kt com direcção variável
Visibilidade 10 km ou mais
sem nuvens abaixo de 1500 metros e sem cumulonimbus

TAF: LEMD 230500Z 2306/2412 VRB03KT CAVOK TX21/2315Z TNM02/2307Z

Observações e previsões do tempo de mais de 4000 aeroportos (mensagens METAR e TAF).

As estações disponíveis são os pontos amarelos e vermelhos sobre o mapa.

Mova o rato sobre o mapa para ver o nome da estação.

Depois clique no ponto para visualizar as observações e previsões meteorológicas.

Para alterar o mapa : clique nos botões verdes com uma cruz preta para aumentar o zoom; no botão verde com uma pitada de zoom; ou nas setas verdes para mapas adjacentes.


METAR-TAF: